Savoy, Illinois
Current Conditions -  °F | °C
As of 3:53 AM on Sunday 21 Dec 2014 (Local Time) from KCMI Reporting Station
Haze Haze  
Wind Chill: 25°   Ceiling: 3200
Heat Index: 32°   Visibility: 6mi
Dew Point: 28°   Wind: 8mph
Humidity: 85%   Direction: 130°SE
Pressure: 30.23"   Gusts: NA
Location:  40.05°N, 88.25°W
Report Text: KCMI 210953Z AUTO 13007KT 6SM BR OVC032 00/M02 A3023 RMK AO2 SLP243 T00001022
Loading
Personal Weather Stations






























Interactive Weather Map New forecast layout! Learn more

10-Day Weather Forecast

Advertisements
Track Severe Weather on mobile